sensor_id;sensor_type;location;lat;lon;timestamp;pressure;altitude;pressure_sealevel;temperature;humidity
76994;BME280;66749;47.406;18.822;2023-11-21T00:00:20;99972.13;;;4.14;89.04
76994;BME280;66749;47.406;18.822;2023-11-21T00:00:52;99966.13;;;4.13;88.92
76994;BME280;66749;47.406;18.822;2023-11-21T00:01:23;99969.53;;;4.14;88.24
76994;BME280;66749;47.406;18.822;2023-11-21T00:01:55;99962.75;;;4.11;88.37
76994;BME280;66749;47.406;18.822;2023-11-21T00:02:28;99963.72;;;4.09;88.23
76994;BME280;66749;47.406;18.822;2023-11-21T00:03:00;99967.19;;;4.08;88.98
76994;BME280;66749;47.406;18.822;2023-11-21T00:03:32;99975.72;;;4.10;88.86
76994;BME280;66749;47.406;18.822;2023-11-21T00:04:04;99967.97;;;4.10;88.55
76994;BME280;66749;47.406;18.822;2023-11-21T00:04:36;99974.03;;;4.09;88.00
76994;BME280;66749;47.406;18.822;2023-11-21T00:05:13;99976.63;;;4.09;88.42
76994;BME280;66749;47.406;18.822;2023-11-21T00:05:45;99974.06;;;4.07;88.62
76994;BME280;66749;47.406;18.822;2023-11-21T00:06:17;99979.31;;;4.06;87.93
76994;BME280;66749;47.406;18.822;2023-11-21T00:06:50;99976.72;;;4.06;87.84
76994;BME280;66749;47.406;18.822;2023-11-21T00:07:22;99971.47;;;4.09;87.98
76994;BME280;66749;47.406;18.822;2023-11-21T00:07:54;99977.47;;;4.09;88.24
76994;BME280;66749;47.406;18.822;2023-11-21T00:08:26;99980.81;;;4.11;89.07
76994;BME280;66749;47.406;18.822;2023-11-21T00:08:59;99974.88;;;4.09;88.56
76994;BME280;66749;47.406;18.822;2023-11-21T00:09:30;99974.81;;;4.11;88.92
76994;BME280;66749;47.406;18.822;2023-11-21T00:10:03;99980.00;;;4.11;89.01
76994;BME280;66749;47.406;18.822;2023-11-21T00:10:36;99975.66;;;4.11;89.57
76994;BME280;66749;47.406;18.822;2023-11-21T00:11:10;99976.50;;;4.12;89.60
76994;BME280;66749;47.406;18.822;2023-11-21T00:11:42;99978.19;;;4.13;89.21
76994;BME280;66749;47.406;18.822;2023-11-21T00:12:15;99974.69;;;4.14;89.16
76994;BME280;66749;47.406;18.822;2023-11-21T00:12:47;99975.59;;;4.13;89.00
76994;BME280;66749;47.406;18.822;2023-11-21T00:13:20;99981.66;;;4.12;89.70
76994;BME280;66749;47.406;18.822;2023-11-21T00:13:52;99980.78;;;4.13;88.87
76994;BME280;66749;47.406;18.822;2023-11-21T00:14:24;99973.88;;;4.13;89.66
76994;BME280;66749;47.406;18.822;2023-11-21T00:14:55;99977.34;;;4.12;88.81
76994;BME280;66749;47.406;18.822;2023-11-21T00:15:29;99968.69;;;4.13;89.24
76994;BME280;66749;47.406;18.822;2023-11-21T00:16:01;99975.50;;;4.16;88.98
76994;BME280;66749;47.406;18.822;2023-11-21T00:16:32;99967.84;;;4.13;88.94
76994;BME280;66749;47.406;18.822;2023-11-21T00:17:05;99967.84;;;4.13;88.66
76994;BME280;66749;47.406;18.822;2023-11-21T00:17:37;99966.19;;;4.12;89.19
76994;BME280;66749;47.406;18.822;2023-11-21T00:18:10;99975.66;;;4.11;89.02
76994;BME280;66749;47.406;18.822;2023-11-21T00:18:42;99973.16;;;4.10;89.14
76994;BME280;66749;47.406;18.822;2023-11-21T00:19:14;99973.16;;;4.10;88.30
76994;BME280;66749;47.406;18.822;2023-11-21T00:19:46;99976.63;;;4.09;88.84
76994;BME280;66749;47.406;18.822;2023-11-21T00:20:18;99978.47;;;4.05;88.64
76994;BME280;66749;47.406;18.822;2023-11-21T00:20:50;99974.91;;;4.08;88.45
76994;BME280;66749;47.406;18.822;2023-11-21T00:21:21;99976.63;;;4.09;88.67
76994;BME280;66749;47.406;18.822;2023-11-21T00:21:53;99978.31;;;4.10;89.26
76994;BME280;66749;47.406;18.822;2023-11-21T00:22:26;99973.91;;;4.12;89.45
76994;BME280;66749;47.406;18.822;2023-11-21T00:22:58;99977.41;;;4.11;89.06
76994;BME280;66749;47.406;18.822;2023-11-21T00:23:31;99977.34;;;4.12;88.87
76994;BME280;66749;47.406;18.822;2023-11-21T00:24:03;99975.66;;;4.11;89.25
76994;BME280;66749;47.406;18.822;2023-11-21T00:24:35;99981.78;;;4.09;88.33
76994;BME280;66749;47.406;18.822;2023-11-21T00:25:07;99980.09;;;4.08;89.13
76994;BME280;66749;47.406;18.822;2023-11-21T00:25:40;99980.09;;;4.08;88.53
76994;BME280;66749;47.406;18.822;2023-11-21T00:26:12;99987.81;;;4.09;88.29
76994;BME280;66749;47.406;18.822;2023-11-21T00:26:45;99984.31;;;4.10;88.00
76994;BME280;66749;47.406;18.822;2023-11-21T00:27:20;99985.25;;;4.08;88.53
76994;BME280;66749;47.406;18.822;2023-11-21T00:27:52;99986.00;;;4.11;88.81
76994;BME280;66749;47.406;18.822;2023-11-21T00:28:25;99984.31;;;4.10;89.02
76994;BME280;66749;47.406;18.822;2023-11-21T00:28:57;99986.06;;;4.10;88.75
76994;BME280;66749;47.406;18.822;2023-11-21T00:29:29;99991.22;;;4.10;88.66
76994;BME280;66749;47.406;18.822;2023-11-21T00:30:02;99987.81;;;4.08;88.18
76994;BME280;66749;47.406;18.822;2023-11-21T00:30:35;99990.41;;;4.08;88.25
76994;BME280;66749;47.406;18.822;2023-11-21T00:31:07;99985.25;;;4.08;88.80
76994;BME280;66749;47.406;18.822;2023-11-21T00:31:39;99987.06;;;4.06;88.84
76994;BME280;66749;47.406;18.822;2023-11-21T00:32:11;99987.88;;;4.06;88.66
76994;BME280;66749;47.406;18.822;2023-11-21T00:32:43;99983.63;;;4.05;88.97
76994;BME280;66749;47.406;18.822;2023-11-21T00:33:15;99990.66;;;4.02;88.98
76994;BME280;66749;47.406;18.822;2023-11-21T00:33:47;99986.41;;;4.01;88.92
76994;BME280;66749;47.406;18.822;2023-11-21T00:34:19;99979.69;;;3.95;89.01
76994;BME280;66749;47.406;18.822;2023-11-21T00:34:51;99981.44;;;3.95;89.20
76994;BME280;66749;47.406;18.822;2023-11-21T00:35:23;99982.22;;;3.97;89.37
76994;BME280;66749;47.406;18.822;2023-11-21T00:35:55;99984.81;;;3.97;89.25
76994;BME280;66749;47.406;18.822;2023-11-21T00:36:26;99991.59;;;3.99;89.40
76994;BME280;66749;47.406;18.822;2023-11-21T00:36:59;99988.06;;;4.02;88.76
76994;BME280;66749;47.406;18.822;2023-11-21T00:37:31;99989.84;;;4.00;88.94
76994;BME280;66749;47.406;18.822;2023-11-21T00:38:03;99995.91;;;3.99;88.63
76994;BME280;66749;47.406;18.822;2023-11-21T00:38:36;99984.81;;;3.97;88.98
76994;BME280;66749;47.406;18.822;2023-11-21T00:39:09;99996.88;;;3.96;89.21
76994;BME280;66749;47.406;18.822;2023-11-21T00:39:41;99988.34;;;3.94;89.56
76994;BME280;66749;47.406;18.822;2023-11-21T00:40:13;99990.94;;;3.94;88.93
76994;BME280;66749;47.406;18.822;2023-11-21T00:40:47;99997.72;;;3.97;89.43
76994;BME280;66749;47.406;18.822;2023-11-21T00:41:18;100004.56;;;3.98;88.78
76994;BME280;66749;47.406;18.822;2023-11-21T00:41:51;100002.88;;;3.97;89.08
76994;BME280;66749;47.406;18.822;2023-11-21T00:42:23;99995.25;;;3.94;88.75
76994;BME280;66749;47.406;18.822;2023-11-21T00:42:55;99986.66;;;3.93;89.27
76994;BME280;66749;47.406;18.822;2023-11-21T00:43:28;100002.09;;;3.95;89.55
76994;BME280;66749;47.406;18.822;2023-11-21T00:44:00;99996.94;;;3.95;89.03
76994;BME280;66749;47.406;18.822;2023-11-21T00:44:32;99997.78;;;3.95;88.85
76994;BME280;66749;47.406;18.822;2023-11-21T00:45:06;99996.13;;;3.93;89.12
76994;BME280;66749;47.406;18.822;2023-11-21T00:45:38;99999.59;;;3.92;89.38
76994;BME280;66749;47.406;18.822;2023-11-21T00:46:11;100000.44;;;3.92;88.88
76994;BME280;66749;47.406;18.822;2023-11-21T00:46:43;99998.69;;;3.93;88.91
76994;BME280;66749;47.406;18.822;2023-11-21T00:47:15;99995.28;;;3.92;89.12
76994;BME280;66749;47.406;18.822;2023-11-21T00:47:48;99998.94;;;3.86;89.05
76994;BME280;66749;47.406;18.822;2023-11-21T00:48:20;99994.88;;;3.79;90.24
76994;BME280;66749;47.406;18.822;2023-11-21T00:48:52;99997.41;;;3.81;89.77
76994;BME280;66749;47.406;18.822;2023-11-21T00:49:25;99992.13;;;3.84;89.57
76994;BME280;66749;47.406;18.822;2023-11-21T00:49:57;99997.19;;;3.87;90.56
76994;BME280;66749;47.406;18.822;2023-11-21T00:50:29;99996.34;;;3.86;90.22
76994;BME280;66749;47.406;18.822;2023-11-21T00:51:01;99991.22;;;3.85;90.01
76994;BME280;66749;47.406;18.822;2023-11-21T00:51:33;99992.97;;;3.84;89.88
76994;BME280;66749;47.406;18.822;2023-11-21T00:52:06;99988.66;;;3.85;89.42
76994;BME280;66749;47.406;18.822;2023-11-21T00:52:38;99976.63;;;3.85;90.05
76994;BME280;66749;47.406;18.822;2023-11-21T00:53:10;99987.81;;;3.84;89.97
76994;BME280;66749;47.406;18.822;2023-11-21T00:53:45;99983.72;;;3.79;89.74
76994;BME280;66749;47.406;18.822;2023-11-21T00:54:18;99985.41;;;3.80;90.28
76994;BME280;66749;47.406;18.822;2023-11-21T00:54:50;99984.44;;;3.82;90.93
76994;BME280;66749;47.406;18.822;2023-11-21T00:55:22;99987.81;;;3.84;90.65
76994;BME280;66749;47.406;18.822;2023-11-21T00:55:53;99983.59;;;3.82;90.10
76994;BME280;66749;47.406;18.822;2023-11-21T00:56:28;99989.66;;;3.81;90.28
76994;BME280;66749;47.406;18.822;2023-11-21T00:57:00;99981.81;;;3.84;90.91
76994;BME280;66749;47.406;18.822;2023-11-21T00:57:33;99985.19;;;3.86;90.53
76994;BME280;66749;47.406;18.822;2023-11-21T00:58:04;99985.13;;;3.87;90.34
76994;BME280;66749;47.406;18.822;2023-11-21T00:58:38;99986.81;;;3.88;90.23
76994;BME280;66749;47.406;18.822;2023-11-21T00:59:10;99987.72;;;3.87;90.74
76994;BME280;66749;47.406;18.822;2023-11-21T00:59:42;99982.50;;;3.89;91.09
76994;BME280;66749;47.406;18.822;2023-11-21T01:00:14;99986.75;;;3.90;91.02
76994;BME280;66749;47.406;18.822;2023-11-21T01:00:48;99990.19;;;3.90;91.10
76994;BME280;66749;47.406;18.822;2023-11-21T01:01:21;99991.06;;;3.89;90.42
76994;BME280;66749;47.406;18.822;2023-11-21T01:01:56;99989.41;;;3.88;90.74
76994;BME280;66749;47.406;18.822;2023-11-21T01:02:28;99990.25;;;3.89;90.43
76994;BME280;66749;47.406;18.822;2023-11-21T01:03:00;99989.28;;;3.92;90.81
76994;BME280;66749;47.406;18.822;2023-11-21T01:03:32;99986.69;;;3.92;90.60
76994;BME280;66749;47.406;18.822;2023-11-21T01:04:04;99993.53;;;3.93;90.15
76994;BME280;66749;47.406;18.822;2023-11-21T01:04:38;99979.91;;;3.89;90.63
76994;BME280;66749;47.406;18.822;2023-11-21T01:05:10;99982.50;;;3.89;90.07
76994;BME280;66749;47.406;18.822;2023-11-21T01:05:42;99987.59;;;3.90;90.59
76994;BME280;66749;47.406;18.822;2023-11-21T01:06:14;99982.44;;;3.90;90.25
76994;BME280;66749;47.406;18.822;2023-11-21T01:06:47;99978.31;;;3.85;89.86
76994;BME280;66749;47.406;18.822;2023-11-21T01:07:19;99982.75;;;3.81;90.17
76994;BME280;66749;47.406;18.822;2023-11-21T01:07:52;99979.41;;;3.79;90.32
76994;BME280;66749;47.406;18.822;2023-11-21T01:08:24;99976.06;;;3.76;90.19
76994;BME280;66749;47.406;18.822;2023-11-21T01:08:56;99976.00;;;3.77;90.06
76994;BME280;66749;47.406;18.822;2023-11-21T01:09:28;99974.13;;;3.82;90.22
76994;BME280;66749;47.406;18.822;2023-11-21T01:10:00;99977.47;;;3.84;89.80
76994;BME280;66749;47.406;18.822;2023-11-21T01:10:32;99970.56;;;3.85;90.37
76994;BME280;66749;47.406;18.822;2023-11-21T01:11:05;99978.31;;;3.85;90.52
76994;BME280;66749;47.406;18.822;2023-11-21T01:11:39;99974.97;;;3.83;89.83
76994;BME280;66749;47.406;18.822;2023-11-21T01:12:11;99971.66;;;3.79;89.50
76994;BME280;66749;47.406;18.822;2023-11-21T01:12:43;99970.63;;;3.83;90.27
76994;BME280;66749;47.406;18.822;2023-11-21T01:13:15;99977.47;;;3.84;89.79
76994;BME280;66749;47.406;18.822;2023-11-21T01:13:48;99975.72;;;3.86;90.01
76994;BME280;66749;47.406;18.822;2023-11-21T01:14:20;99979.91;;;3.89;90.31
76994;BME280;66749;47.406;18.822;2023-11-21T01:14:52;99972.22;;;3.87;89.82
76994;BME280;66749;47.406;18.822;2023-11-21T01:15:23;99968.00;;;3.85;90.53
76994;BME280;66749;47.406;18.822;2023-11-21T01:15:57;99962.91;;;3.83;90.09
76994;BME280;66749;47.406;18.822;2023-11-21T01:16:29;99963.72;;;3.85;90.51
76994;BME280;66749;47.406;18.822;2023-11-21T01:17:01;99975.72;;;3.86;91.16
76994;BME280;66749;47.406;18.822;2023-11-21T01:17:34;99971.44;;;3.85;90.53
76994;BME280;66749;47.406;18.822;2023-11-21T01:18:06;99966.28;;;3.85;90.37
76994;BME280;66749;47.406;18.822;2023-11-21T01:18:37;99967.06;;;3.87;90.95
76994;BME280;66749;47.406;18.822;2023-11-21T01:19:09;99967.84;;;3.89;90.92
76994;BME280;66749;47.406;18.822;2023-11-21T01:19:41;99960.09;;;3.89;90.71
76994;BME280;66749;47.406;18.822;2023-11-21T01:20:13;99973.78;;;3.92;91.32
76994;BME280;66749;47.406;18.822;2023-11-21T01:20:45;99966.84;;;3.94;91.80
76994;BME280;66749;47.406;18.822;2023-11-21T01:21:18;99968.53;;;3.95;90.75
76994;BME280;66749;47.406;18.822;2023-11-21T01:21:50;99960.78;;;3.95;91.04
76994;BME280;66749;47.406;18.822;2023-11-21T01:22:23;99965.06;;;3.96;91.13
76994;BME280;66749;47.406;18.822;2023-11-21T01:22:57;99971.00;;;3.98;91.34
76994;BME280;66749;47.406;18.822;2023-11-21T01:23:29;99964.94;;;3.99;91.63
76994;BME280;66749;47.406;18.822;2023-11-21T01:24:01;99962.41;;;3.97;91.77
76994;BME280;66749;47.406;18.822;2023-11-21T01:24:34;99961.56;;;3.97;91.10
76994;BME280;66749;47.406;18.822;2023-11-21T01:25:06;99960.66;;;3.98;91.60
76994;BME280;66749;47.406;18.822;2023-11-21T01:25:39;99961.56;;;3.97;91.01
76994;BME280;66749;47.406;18.822;2023-11-21T01:26:11;99964.28;;;3.94;91.03
76994;BME280;66749;47.406;18.822;2023-11-21T01:26:43;99962.53;;;3.94;90.66
76994;BME280;66749;47.406;18.822;2023-11-21T01:27:17;99965.91;;;3.96;90.70
76994;BME280;66749;47.406;18.822;2023-11-21T01:27:48;99964.09;;;3.98;90.63
76994;BME280;66749;47.406;18.822;2023-11-21T01:28:20;99961.41;;;4.01;91.18
76994;BME280;66749;47.406;18.822;2023-11-21T01:28:52;99960.56;;;4.01;91.11
76994;BME280;66749;47.406;18.822;2023-11-21T01:29:24;99964.84;;;4.02;90.47
76994;BME280;66749;47.406;18.822;2023-11-21T01:29:56;99961.34;;;4.03;91.11
76994;BME280;66749;47.406;18.822;2023-11-21T01:30:28;99962.19;;;4.03;90.42
76994;BME280;66749;47.406;18.822;2023-11-21T01:31:00;99964.72;;;4.05;90.63
76994;BME280;66749;47.406;18.822;2023-11-21T01:31:31;99966.53;;;4.03;91.24
76994;BME280;66749;47.406;18.822;2023-11-21T01:32:04;99969.09;;;4.03;90.73
76994;BME280;66749;47.406;18.822;2023-11-21T01:32:37;99964.00;;;4.01;90.65
76994;BME280;66749;47.406;18.822;2023-11-21T01:33:09;99970.91;;;4.01;90.95
76994;BME280;66749;47.406;18.822;2023-11-21T01:33:41;99970.00;;;4.02;90.44
76994;BME280;66749;47.406;18.822;2023-11-21T01:34:13;99971.69;;;4.03;91.04
76994;BME280;66749;47.406;18.822;2023-11-21T01:34:47;99969.16;;;4.01;90.51
76994;BME280;66749;47.406;18.822;2023-11-21T01:35:19;99972.53;;;4.03;90.08
76994;BME280;66749;47.406;18.822;2023-11-21T01:35:51;99965.69;;;4.02;90.18
76994;BME280;66749;47.406;18.822;2023-11-21T01:36:32;99969.09;;;4.03;90.66
76994;BME280;66749;47.406;18.822;2023-11-21T01:37:05;99963.88;;;4.04;90.96
76994;BME280;66749;47.406;18.822;2023-11-21T01:37:37;99963.81;;;4.06;90.16
76994;BME280;66749;47.406;18.822;2023-11-21T01:38:10;99963.81;;;4.06;90.35
76994;BME280;66749;47.406;18.822;2023-11-21T01:38:42;99965.50;;;4.07;90.71
76994;BME280;66749;47.406;18.822;2023-11-21T01:39:14;99961.22;;;4.06;90.68
76994;BME280;66749;47.406;18.822;2023-11-21T01:39:48;99960.44;;;4.04;90.74
76994;BME280;66749;47.406;18.822;2023-11-21T01:40:20;99958.78;;;4.03;90.32
76994;BME280;66749;47.406;18.822;2023-11-21T01:40:52;99957.03;;;4.03;90.36
76994;BME280;66749;47.406;18.822;2023-11-21T01:41:26;99960.44;;;4.04;90.90
76994;BME280;66749;47.406;18.822;2023-11-21T01:41:58;99956.06;;;4.06;90.63
76994;BME280;66749;47.406;18.822;2023-11-21T01:42:30;99957.75;;;4.07;90.99
76994;BME280;66749;47.406;18.822;2023-11-21T01:43:02;99955.16;;;4.07;90.51
76994;BME280;66749;47.406;18.822;2023-11-21T01:43:35;99959.44;;;4.08;90.81
76994;BME280;66749;47.406;18.822;2023-11-21T01:44:06;99951.75;;;4.06;90.84
76994;BME280;66749;47.406;18.822;2023-11-21T01:44:40;99951.81;;;4.05;90.11
76994;BME280;66749;47.406;18.822;2023-11-21T01:45:13;99952.72;;;4.04;90.30
76994;BME280;66749;47.406;18.822;2023-11-21T01:45:46;99949.22;;;4.05;90.16
76994;BME280;66749;47.406;18.822;2023-11-21T01:46:18;99948.44;;;4.03;89.98
76994;BME280;66749;47.406;18.822;2023-11-21T01:46:51;99947.75;;;3.98;90.23
76994;BME280;66749;47.406;18.822;2023-11-21T01:47:23;99953.03;;;3.95;90.54
76994;BME280;66749;47.406;18.822;2023-11-21T01:47:55;99961.63;;;3.95;91.17
76994;BME280;66749;47.406;18.822;2023-11-21T01:48:28;99954.22;;;3.86;90.33
76994;BME280;66749;47.406;18.822;2023-11-21T01:49:01;99956.91;;;3.83;90.29
76994;BME280;66749;47.406;18.822;2023-11-21T01:49:33;99950.81;;;3.85;90.54
76994;BME280;66749;47.406;18.822;2023-11-21T01:50:07;99958.63;;;3.82;90.73
76994;BME280;66749;47.406;18.822;2023-11-21T01:50:39;99949.09;;;3.84;90.94
76994;BME280;66749;47.406;18.822;2023-11-21T01:51:11;99952.41;;;3.88;91.61
76994;BME280;66749;47.406;18.822;2023-11-21T01:51:47;99957.47;;;3.91;91.43
76994;BME280;66749;47.406;18.822;2023-11-21T01:52:20;99951.47;;;3.90;91.53
76994;BME280;66749;47.406;18.822;2023-11-21T01:52:52;99945.38;;;3.93;90.98
76994;BME280;66749;47.406;18.822;2023-11-21T01:53:25;99951.31;;;3.95;91.64
76994;BME280;66749;47.406;18.822;2023-11-21T01:53:58;99951.31;;;3.95;91.42
76994;BME280;66749;47.406;18.822;2023-11-21T01:54:31;99948.66;;;3.97;91.98
76994;BME280;66749;47.406;18.822;2023-11-21T01:55:06;99948.66;;;3.97;91.24
76994;BME280;66749;47.406;18.822;2023-11-21T01:55:41;99947.75;;;3.98;91.06
76994;BME280;66749;47.406;18.822;2023-11-21T01:56:14;99953.75;;;3.98;91.34
76994;BME280;66749;47.406;18.822;2023-11-21T01:56:47;99952.94;;;3.98;91.44
76994;BME280;66749;47.406;18.822;2023-11-21T01:57:19;99950.34;;;3.98;91.26
76994;BME280;66749;47.406;18.822;2023-11-21T01:57:52;99949.44;;;3.99;91.19
76994;BME280;66749;47.406;18.822;2023-11-21T01:58:24;99948.59;;;3.98;91.25
76994;BME280;66749;47.406;18.822;2023-11-21T01:58:55;99945.97;;;4.00;91.42
76994;BME280;66749;47.406;18.822;2023-11-21T01:59:38;99951.88;;;4.03;91.34
76994;BME280;66749;47.406;18.822;2023-11-21T02:00:10;99937.22;;;4.04;91.35
76994;BME280;66749;47.406;18.822;2023-11-21T02:00:48;99941.47;;;4.05;91.24
76994;BME280;66749;47.406;18.822;2023-11-21T02:01:22;99945.75;;;4.06;91.42
76994;BME280;66749;47.406;18.822;2023-11-21T02:01:54;99941.41;;;4.06;91.42
76994;BME280;66749;47.406;18.822;2023-11-21T02:02:27;99941.34;;;4.08;91.41
76994;BME280;66749;47.406;18.822;2023-11-21T02:03:00;99937.00;;;4.10;91.18
76994;BME280;66749;47.406;18.822;2023-11-21T02:03:32;99938.69;;;4.11;91.91
76994;BME280;66749;47.406;18.822;2023-11-21T02:04:04;99931.72;;;4.13;92.12
76994;BME280;66749;47.406;18.822;2023-11-21T02:04:36;99937.78;;;4.12;91.40
76994;BME280;66749;47.406;18.822;2023-11-21T02:05:08;99937.00;;;4.10;91.34
76994;BME280;66749;47.406;18.822;2023-11-21T02:05:40;99930.03;;;4.12;92.04
76994;BME280;66749;47.406;18.822;2023-11-21T02:06:12;99934.34;;;4.11;91.54
76994;BME280;66749;47.406;18.822;2023-11-21T02:06:45;99935.19;;;4.12;91.59
76994;BME280;66749;47.406;18.822;2023-11-21T02:07:16;99934.34;;;4.11;91.26
76994;BME280;66749;47.406;18.822;2023-11-21T02:07:51;99935.31;;;4.09;91.65
76994;BME280;66749;47.406;18.822;2023-11-21T02:08:24;99926.75;;;4.07;91.94
76994;BME280;66749;47.406;18.822;2023-11-21T02:08:56;99926.75;;;4.07;91.84
76994;BME280;66749;47.406;18.822;2023-11-21T02:09:28;99928.50;;;4.06;92.05
76994;BME280;66749;47.406;18.822;2023-11-21T02:10:05;99926.66;;;4.10;91.96
76994;BME280;66749;47.406;18.822;2023-11-21T02:10:37;99923.19;;;4.11;91.47
76994;BME280;66749;47.406;18.822;2023-11-21T02:11:09;99925.63;;;4.14;91.30
76994;BME280;66749;47.406;18.822;2023-11-21T02:11:44;99923.00;;;4.15;91.98
76994;BME280;66749;47.406;18.822;2023-11-21T02:12:16;99921.28;;;4.16;91.92
76994;BME280;66749;47.406;18.822;2023-11-21T02:12:49;99923.88;;;4.16;91.16
76994;BME280;66749;47.406;18.822;2023-11-21T02:13:24;99922.97;;;4.17;91.36
76994;BME280;66749;47.406;18.822;2023-11-21T02:13:59;99926.44;;;4.16;91.51
76994;BME280;66749;47.406;18.822;2023-11-21T02:14:32;99929.81;;;4.18;91.38
76994;BME280;66749;47.406;18.822;2023-11-21T02:15:05;99919.47;;;4.18;91.66
76994;BME280;66749;47.406;18.822;2023-11-21T02:15:41;99930.59;;;4.20;92.08
76994;BME280;66749;47.406;18.822;2023-11-21T02:16:13;99934.00;;;4.21;92.23
76994;BME280;66749;47.406;18.822;2023-11-21T02:16:45;99931.41;;;4.21;92.43
76994;BME280;66749;47.406;18.822;2023-11-21T02:17:19;99928.91;;;4.19;92.00
76994;BME280;66749;47.406;18.822;2023-11-21T02:17:52;99931.50;;;4.19;92.35
76994;BME280;66749;47.406;18.822;2023-11-21T02:18:25;99925.53;;;4.17;91.83
76994;BME280;66749;47.406;18.822;2023-11-21T02:19:00;99929.81;;;4.18;91.42
76994;BME280;66749;47.406;18.822;2023-11-21T02:19:32;99920.31;;;4.18;91.74
76994;BME280;66749;47.406;18.822;2023-11-21T02:20:06;99922.97;;;4.17;92.12
76994;BME280;66749;47.406;18.822;2023-11-21T02:20:38;99919.56;;;4.15;92.13
76994;BME280;66749;47.406;18.822;2023-11-21T02:21:13;99922.13;;;4.16;91.65
76994;BME280;66749;47.406;18.822;2023-11-21T02:21:45;99922.97;;;4.17;92.14
76994;BME280;66749;47.406;18.822;2023-11-21T02:22:19;99923.91;;;4.14;91.72
76994;BME280;66749;47.406;18.822;2023-11-21T02:22:56;99920.53;;;4.12;91.56
76994;BME280;66749;47.406;18.822;2023-11-21T02:23:32;99918.88;;;4.11;91.57
76994;BME280;66749;47.406;18.822;2023-11-21T02:24:05;99913.63;;;4.13;92.32
76994;BME280;66749;47.406;18.822;2023-11-21T02:24:37;99917.81;;;4.17;91.82
76994;BME280;66749;47.406;18.822;2023-11-21T02:25:09;99916.84;;;4.20;92.27
76994;BME280;66749;47.406;18.822;2023-11-21T02:25:41;99921.16;;;4.19;92.40
76994;BME280;66749;47.406;18.822;2023-11-21T02:26:14;99915.16;;;4.18;92.52
76994;BME280;66749;47.406;18.822;2023-11-21T02:26:46;99921.09;;;4.21;92.58
76994;BME280;66749;47.406;18.822;2023-11-21T02:27:18;99915.16;;;4.18;92.10
76994;BME280;66749;47.406;18.822;2023-11-21T02:27:54;99913.41;;;4.19;91.91
76994;BME280;66749;47.406;18.822;2023-11-21T02:28:27;99912.50;;;4.20;92.31
76994;BME280;66749;47.406;18.822;2023-11-21T02:28:58;99910.75;;;4.21;92.23
76994;BME280;66749;47.406;18.822;2023-11-21T02:29:30;99910.69;;;4.22;91.93
76994;BME280;66749;47.406;18.822;2023-11-21T02:30:03;99916.66;;;4.24;92.28
76994;BME280;66749;47.406;18.822;2023-11-21T02:30:36;99918.44;;;4.22;92.24
76994;BME280;66749;47.406;18.822;2023-11-21T02:31:08;99917.66;;;4.20;92.35
76994;BME280;66749;47.406;18.822;2023-11-21T02:31:40;99916.00;;;4.19;92.34
76994;BME280;66749;47.406;18.822;2023-11-21T02:32:20;99911.66;;;4.20;91.80
76994;BME280;66749;47.406;18.822;2023-11-21T02:32:54;99917.66;;;4.20;91.98
76994;BME280;66749;47.406;18.822;2023-11-21T02:33:29;99910.69;;;4.22;92.35
76994;BME280;66749;47.406;18.822;2023-11-21T02:34:00;99910.59;;;4.25;92.52
76994;BME280;66749;47.406;18.822;2023-11-21T02:34:32;99914.09;;;4.24;92.06
76994;BME280;66749;47.406;18.822;2023-11-21T02:35:05;99915.84;;;4.24;92.21
76994;BME280;66749;47.406;18.822;2023-11-21T02:35:39;99913.25;;;4.24;92.43
76994;BME280;66749;47.406;18.822;2023-11-21T02:36:11;99914.19;;;4.21;92.77
76994;BME280;66749;47.406;18.822;2023-11-21T02:36:47;99915.03;;;4.22;92.21
76994;BME280;66749;47.406;18.822;2023-11-21T02:37:22;99912.50;;;4.20;92.77
76994;BME280;66749;47.406;18.822;2023-11-21T02:37:54;99905.00;;;4.14;92.37
76994;BME280;66749;47.406;18.822;2023-11-21T02:38:27;99906.72;;;4.13;93.01
76994;BME280;66749;47.406;18.822;2023-11-21T02:38:58;99906.63;;;4.16;93.50
76994;BME280;66749;47.406;18.822;2023-11-21T02:39:30;99900.50;;;4.19;92.81
76994;BME280;66749;47.406;18.822;2023-11-21T02:40:03;99909.88;;;4.22;92.78
76994;BME280;66749;47.406;18.822;2023-11-21T02:40:38;99905.50;;;4.24;93.46
76994;BME280;66749;47.406;18.822;2023-11-21T02:41:10;99911.53;;;4.23;92.73
76994;BME280;66749;47.406;18.822;2023-11-21T02:41:42;99907.50;;;4.15;93.00
76994;BME280;66749;47.406;18.822;2023-11-21T02:42:14;99902.41;;;4.14;93.69
76994;BME280;66749;47.406;18.822;2023-11-21T02:42:47;99911.72;;;4.18;92.95
76994;BME280;66749;47.406;18.822;2023-11-21T02:43:18;99909.03;;;4.21;93.39
76994;BME280;66749;47.406;18.822;2023-11-21T02:43:50;99908.13;;;4.22;92.65
76994;BME280;66749;47.406;18.822;2023-11-21T02:44:22;99915.84;;;4.24;93.38
76994;BME280;66749;47.406;18.822;2023-11-21T02:44:54;99910.59;;;4.25;93.52
76994;BME280;66749;47.406;18.822;2023-11-21T02:45:26;99907.13;;;4.26;92.76
76994;BME280;66749;47.406;18.822;2023-11-21T02:45:58;99901.94;;;4.26;93.12
76994;BME280;66749;47.406;18.822;2023-11-21T02:46:30;99909.69;;;4.26;92.81
76994;BME280;66749;47.406;18.822;2023-11-21T02:47:04;99912.44;;;4.22;92.91
76994;BME280;66749;47.406;18.822;2023-11-21T02:47:36;99904.00;;;4.18;93.49
76994;BME280;66749;47.406;18.822;2023-11-21T02:48:08;99912.50;;;4.20;93.74
76994;BME280;66749;47.406;18.822;2023-11-21T02:48:40;99903.84;;;4.21;93.49
76994;BME280;66749;47.406;18.822;2023-11-21T02:49:11;99905.50;;;4.24;93.43
76994;BME280;66749;47.406;18.822;2023-11-21T02:49:43;99902.91;;;4.24;93.34
76994;BME280;66749;47.406;18.822;2023-11-21T02:50:16;99904.59;;;4.25;93.93
76994;BME280;66749;47.406;18.822;2023-11-21T02:50:50;99905.50;;;4.24;93.22
76994;BME280;66749;47.406;18.822;2023-11-21T02:51:25;99909.03;;;4.21;93.28
76994;BME280;66749;47.406;18.822;2023-11-21T02:51:56;99904.69;;;4.22;93.41
76994;BME280;66749;47.406;18.822;2023-11-21T02:52:28;99901.22;;;4.23;93.33
76994;BME280;66749;47.406;18.822;2023-11-21T02:53:01;99897.69;;;4.25;93.37